createdAt,value
2022-09-18T00:02:13.933Z,89.76
2022-09-18T00:04:42.721Z,89.72
2022-09-18T00:07:11.437Z,89.86
2022-09-18T00:09:40.295Z,89.88
2022-09-18T00:12:09.186Z,89.83
2022-09-18T00:14:38.136Z,89.83
2022-09-18T00:17:09.243Z,89.87
2022-09-18T00:19:38.127Z,89.77
2022-09-18T00:22:07.125Z,89.66
2022-09-18T00:24:35.763Z,89.64
2022-09-18T00:27:04.452Z,89.51
2022-09-18T00:29:33.227Z,89.55
2022-09-18T00:32:02.472Z,89.40
2022-09-18T00:34:32.709Z,89.20
2022-09-18T00:37:01.403Z,89.27
2022-09-18T00:39:30.060Z,89.27
2022-09-18T00:41:58.745Z,89.15
2022-09-18T00:44:42.905Z,89.28
2022-09-18T00:47:28.243Z,89.20
2022-09-18T00:50:08.187Z,89.19
2022-09-18T00:52:50.905Z,89.27
2022-09-18T00:55:25.397Z,89.09
2022-09-18T00:57:59.080Z,89.30
2022-09-18T01:00:28.079Z,89.22
2022-09-18T01:03:01.474Z,89.31
2022-09-18T01:05:48.887Z,89.15
2022-09-18T01:08:43.227Z,89.56
2022-09-18T01:11:29.329Z,89.70
2022-09-18T01:14:14.136Z,89.79
2022-09-18T01:16:54.640Z,89.72
2022-09-18T01:19:48.377Z,89.64
2022-09-18T01:22:33.107Z,89.67
2022-09-18T01:25:21.289Z,89.66
2022-09-18T01:28:17.884Z,89.64
2022-09-18T01:30:52.159Z,89.67
2022-09-18T01:33:32.634Z,89.51
2022-09-18T01:36:07.654Z,89.68
2022-09-18T01:38:42.969Z,89.60
2022-09-18T01:41:15.768Z,89.46
2022-09-18T01:43:49.769Z,89.41
2022-09-18T01:46:21.394Z,89.30
2022-09-18T01:48:59.253Z,89.22
2022-09-18T01:51:37.556Z,89.34
2022-09-18T01:54:14.265Z,89.32
2022-09-18T01:56:49.256Z,89.38
2022-09-18T01:59:30.626Z,89.39
2022-09-18T02:02:16.240Z,89.41
2022-09-18T02:04:48.751Z,89.43
2022-09-18T02:07:28.436Z,89.32
2022-09-18T02:09:58.964Z,89.49
2022-09-18T02:12:34.311Z,89.45
2022-09-18T02:15:13.049Z,89.55
2022-09-18T02:17:58.669Z,89.56
2022-09-18T02:20:39.801Z,89.40
2022-09-18T02:23:10.403Z,89.52
2022-09-18T02:25:46.797Z,89.50
2022-09-18T02:28:19.428Z,89.41
2022-09-18T02:30:49.981Z,89.21
2022-09-18T02:33:29.095Z,89.04
2022-09-18T02:36:40.897Z,89.20
2022-09-18T02:39:32.264Z,89.10
2022-09-18T02:42:17.472Z,89.08
2022-09-18T02:44:57.008Z,88.86
2022-09-18T02:47:48.438Z,88.92
2022-09-18T02:50:29.808Z,88.72
2022-09-18T02:53:07.201Z,88.71
2022-09-18T02:55:47.346Z,88.51
2022-09-18T02:58:21.940Z,88.48
2022-09-18T03:00:57.340Z,88.39
2022-09-18T03:03:33.920Z,88.45
2022-09-18T03:06:07.449Z,88.42
2022-09-18T03:08:38.192Z,88.43
2022-09-18T03:11:07.992Z,88.40
2022-09-18T03:13:36.886Z,88.31
2022-09-18T03:16:05.655Z,88.11
2022-09-18T03:18:35.795Z,87.83
2022-09-18T03:21:04.785Z,87.62
2022-09-18T03:23:34.605Z,87.82
2022-09-18T03:26:14.933Z,88.09
2022-09-18T03:28:44.332Z,88.07
2022-09-18T03:31:14.960Z,88.07
2022-09-18T03:33:45.188Z,88.09
2022-09-18T03:36:14.790Z,87.78
2022-09-18T03:38:44.353Z,87.82
2022-09-18T03:41:13.687Z,87.93
2022-09-18T03:43:43.973Z,87.94
2022-09-18T03:46:14.147Z,88.07
2022-09-18T03:48:44.340Z,87.94
2022-09-18T03:51:13.080Z,88.11
2022-09-18T03:53:41.900Z,87.93
2022-09-18T03:56:26.596Z,88.02
2022-09-18T03:59:13.775Z,87.90
2022-09-18T04:02:02.963Z,87.91
2022-09-18T04:04:33.936Z,88.09
2022-09-18T04:07:32.416Z,88.18
2022-09-18T04:10:23.990Z,88.29
2022-09-18T04:12:52.990Z,88.30
2022-09-18T04:15:28.165Z,88.51
2022-09-18T04:17:57.964Z,88.61
2022-09-18T04:20:31.796Z,88.68
2022-09-18T04:23:02.094Z,88.75
2022-09-18T04:25:31.149Z,88.77
2022-09-18T04:28:00.523Z,88.93
2022-09-18T04:30:30.023Z,88.93
2022-09-18T04:32:59.029Z,88.96
2022-09-18T04:35:29.792Z,89.10
2022-09-18T04:37:58.738Z,89.19
2022-09-18T04:40:29.851Z,89.27
2022-09-18T04:42:58.985Z,89.24
2022-09-18T04:45:28.822Z,89.07
2022-09-18T04:47:57.546Z,89.30
2022-09-18T04:50:28.839Z,89.18
2022-09-18T04:53:19.827Z,89.34
2022-09-18T04:55:49.894Z,89.19
2022-09-18T04:58:21.016Z,89.01
2022-09-18T05:00:54.959Z,88.95
2022-09-18T05:03:24.034Z,88.94
2022-09-18T05:05:56.293Z,88.92
2022-09-18T05:08:26.059Z,88.93
2022-09-18T05:10:54.769Z,88.84
2022-09-18T05:13:24.098Z,88.78
2022-09-18T05:16:02.186Z,88.74
2022-09-18T05:18:33.086Z,88.81
2022-09-18T05:21:07.026Z,88.90
2022-09-18T05:23:36.433Z,88.16
2022-09-18T05:26:05.713Z,88.00
2022-09-18T05:28:34.745Z,87.85
2022-09-18T05:31:04.626Z,87.74
2022-09-18T05:33:41.807Z,87.77
2022-09-18T05:36:12.242Z,87.67
2022-09-18T05:38:41.007Z,87.57
2022-09-18T05:41:11.257Z,87.48
2022-09-18T05:43:40.271Z,87.47
2022-09-18T05:46:11.925Z,87.37
2022-09-18T05:48:47.109Z,87.12
2022-09-18T05:51:17.593Z,87.09
2022-09-18T05:53:48.619Z,87.15
2022-09-18T05:56:22.966Z,86.75
2022-09-18T05:58:52.154Z,86.65
2022-09-18T06:01:20.882Z,86.48
2022-09-18T06:04:12.534Z,86.65
2022-09-18T06:06:57.182Z,86.42
2022-09-18T06:09:27.860Z,86.33
2022-09-18T06:11:56.959Z,86.10
2022-09-18T06:14:26.219Z,86.51
2022-09-18T06:16:55.692Z,86.16
2022-09-18T06:19:24.418Z,85.35
2022-09-18T06:21:55.657Z,85.44
2022-09-18T06:24:24.655Z,85.17
2022-09-18T06:27:07.312Z,84.97
2022-09-18T06:29:37.087Z,84.88
2022-09-18T06:32:12.439Z,84.35
2022-09-18T06:34:42.262Z,84.76
2022-09-18T06:37:15.869Z,84.41
2022-09-18T06:39:44.941Z,84.17
2022-09-18T06:42:33.470Z,84.10
2022-09-18T06:45:14.700Z,84.12
2022-09-18T06:47:43.646Z,83.88
2022-09-18T06:50:16.023Z,83.75
2022-09-18T06:52:48.060Z,83.50
2022-09-18T06:55:17.672Z,83.58
2022-09-18T06:57:56.003Z,83.32
2022-09-18T07:00:25.737Z,83.08
2022-09-18T07:03:01.084Z,82.82
2022-09-18T07:05:50.049Z,82.90
2022-09-18T07:08:47.003Z,82.57
2022-09-18T07:11:43.754Z,82.66
2022-09-18T07:14:16.099Z,82.76
2022-09-18T07:16:45.737Z,82.57
2022-09-18T07:19:15.348Z,82.41
2022-09-18T07:21:45.014Z,82.47
2022-09-18T07:24:18.271Z,82.39
2022-09-18T07:26:48.884Z,82.31
2022-09-18T07:29:24.666Z,82.00
2022-09-18T07:31:54.885Z,81.69
2022-09-18T07:34:24.343Z,81.51
2022-09-18T07:36:53.381Z,80.67
2022-09-18T07:39:26.285Z,80.52
2022-09-18T07:42:17.408Z,80.79
2022-09-18T07:44:52.635Z,80.43
2022-09-18T07:47:26.940Z,80.66
2022-09-18T07:49:55.984Z,80.56
2022-09-18T07:52:27.869Z,79.77
2022-09-18T07:55:00.232Z,79.24
2022-09-18T07:57:33.706Z,78.94
2022-09-18T08:00:19.665Z,78.86
2022-09-18T08:02:52.562Z,78.77
2022-09-18T08:05:43.489Z,78.65
2022-09-18T08:08:14.529Z,78.65
2022-09-18T08:11:06.019Z,78.62
2022-09-18T08:13:45.869Z,78.72
2022-09-18T08:16:36.701Z,78.56
2022-09-18T08:19:08.233Z,77.89
2022-09-18T08:21:49.736Z,77.93
2022-09-18T08:24:19.249Z,77.88
2022-09-18T08:26:50.133Z,77.26
2022-09-18T08:29:22.009Z,76.13
2022-09-18T08:31:55.496Z,75.88
2022-09-18T08:34:24.334Z,75.82
2022-09-18T08:36:53.285Z,76.10
2022-09-18T08:39:26.734Z,76.75
2022-09-18T08:42:17.488Z,77.34
2022-09-18T08:44:51.835Z,76.86
2022-09-18T08:47:26.868Z,76.55
2022-09-18T08:50:05.582Z,75.84
2022-09-18T08:52:45.835Z,75.89
2022-09-18T08:55:33.488Z,76.32
2022-09-18T08:58:19.827Z,76.37
2022-09-18T09:00:56.179Z,76.49
2022-09-18T09:03:53.234Z,76.52
2022-09-18T09:06:42.432Z,76.50
2022-09-18T09:09:40.231Z,76.63
2022-09-18T09:12:26.037Z,76.39
2022-09-18T09:15:22.060Z,76.56
2022-09-18T09:18:16.545Z,76.06
2022-09-18T09:20:54.873Z,75.71
2022-09-18T09:24:05.334Z,75.68
2022-09-18T09:26:59.814Z,75.69
2022-09-18T09:30:01.686Z,75.73
2022-09-18T09:33:13.530Z,75.53
2022-09-18T09:36:08.383Z,75.38
2022-09-18T09:39:07.414Z,75.15
2022-09-18T09:41:43.645Z,75.12
2022-09-18T09:44:30.420Z,75.36
2022-09-18T09:47:16.263Z,75.32
2022-09-18T09:50:01.894Z,75.11
2022-09-18T09:52:33.462Z,74.81
2022-09-18T09:55:28.460Z,74.51
2022-09-18T09:58:22.477Z,74.70
2022-09-18T10:01:04.374Z,74.45
2022-09-18T10:03:47.316Z,74.05
2022-09-18T10:06:37.051Z,74.20
2022-09-18T10:09:20.147Z,74.02
2022-09-18T10:12:00.257Z,73.73
2022-09-18T10:14:35.403Z,74.32
2022-09-18T10:17:06.565Z,72.97
2022-09-18T10:19:41.700Z,72.11
2022-09-18T10:22:19.337Z,72.00
2022-09-18T10:25:01.212Z,71.93
2022-09-18T10:27:30.007Z,71.86
2022-09-18T10:29:59.533Z,71.72
2022-09-18T10:32:43.497Z,71.95
2022-09-18T10:35:43.228Z,71.92
2022-09-18T10:38:37.582Z,72.50
2022-09-18T10:41:36.899Z,72.32
2022-09-18T10:44:25.718Z,72.29
2022-09-18T10:47:09.551Z,72.32
2022-09-18T10:49:50.849Z,71.78
2022-09-18T10:52:36.736Z,71.73
2022-09-18T10:55:21.000Z,72.00
2022-09-18T10:58:15.722Z,71.78
2022-09-18T11:00:57.614Z,71.65
2022-09-18T11:03:43.327Z,71.83
2022-09-18T11:06:23.948Z,71.96
2022-09-18T11:08:57.293Z,71.59
2022-09-18T11:11:36.180Z,71.53
2022-09-18T11:14:21.863Z,71.12
2022-09-18T11:17:05.494Z,71.08
2022-09-18T11:19:40.913Z,70.57
2022-09-18T11:22:36.610Z,71.02
2022-09-18T11:25:24.342Z,70.52
2022-09-18T11:28:02.730Z,69.95
2022-09-18T11:30:39.181Z,69.67
2022-09-18T11:33:27.491Z,69.58
2022-09-18T11:36:05.381Z,69.67
2022-09-18T11:38:41.314Z,69.78
2022-09-18T11:41:12.362Z,69.89
2022-09-18T11:44:01.077Z,70.12
2022-09-18T11:47:01.151Z,69.78
2022-09-18T11:49:37.279Z,70.12
2022-09-18T11:52:16.108Z,69.92
2022-09-18T11:54:58.638Z,70.00
2022-09-18T11:57:36.771Z,69.94
2022-09-18T12:00:15.132Z,69.56
2022-09-18T12:02:59.615Z,69.77
2022-09-18T12:05:51.590Z,69.67
2022-09-18T12:08:50.924Z,69.40
2022-09-18T12:11:32.168Z,69.54
2022-09-18T12:14:13.398Z,69.48
2022-09-18T12:16:59.006Z,69.42
2022-09-18T12:19:38.203Z,69.16
2022-09-18T12:22:19.021Z,68.63
2022-09-18T12:24:48.484Z,68.62
2022-09-18T12:27:33.914Z,69.02
2022-09-18T12:30:11.197Z,68.79
2022-09-18T12:33:04.153Z,68.49
2022-09-18T12:36:03.001Z,68.36
2022-09-18T12:38:51.302Z,68.33
2022-09-18T12:41:57.795Z,68.31
2022-09-18T12:44:56.022Z,67.85
2022-09-18T12:47:46.394Z,67.99
2022-09-18T12:50:45.767Z,67.97
2022-09-18T12:53:43.016Z,67.61
2022-09-18T12:56:35.322Z,68.24
2022-09-18T12:59:50.993Z,68.68
2022-09-18T13:02:37.127Z,68.92
2022-09-18T13:05:22.222Z,68.91
2022-09-18T13:07:59.863Z,68.91
2022-09-18T13:10:35.573Z,68.84
2022-09-18T13:13:14.123Z,68.49
2022-09-18T13:15:49.817Z,67.84
2022-09-18T13:18:30.965Z,67.51
2022-09-18T13:21:03.981Z,67.71
2022-09-18T13:23:39.354Z,68.01
2022-09-18T13:26:14.161Z,68.11
2022-09-18T13:28:44.445Z,67.75
2022-09-18T13:31:29.064Z,67.45
2022-09-18T13:34:02.377Z,68.14
2022-09-18T13:36:35.565Z,68.38
2022-09-18T13:39:18.449Z,68.38
2022-09-18T13:41:51.484Z,68.65
2022-09-18T13:44:26.388Z,68.54
2022-09-18T13:47:06.485Z,68.84
2022-09-18T13:49:43.940Z,68.65
2022-09-18T13:52:45.813Z,68.67
2022-09-18T13:55:49.632Z,68.88
2022-09-18T13:58:53.950Z,68.90
2022-09-18T14:02:04.439Z,69.01
2022-09-18T14:05:05.856Z,69.45
2022-09-18T14:08:17.313Z,68.48
2022-09-18T14:11:15.804Z,68.51
2022-09-18T14:13:54.209Z,68.46
2022-09-18T14:16:38.962Z,68.77
2022-09-18T14:19:32.328Z,68.48
2022-09-18T14:22:03.195Z,68.55
2022-09-18T14:25:00.096Z,68.71
2022-09-18T14:27:48.892Z,68.49
2022-09-18T14:30:26.862Z,68.61
2022-09-18T14:33:18.211Z,68.79
2022-09-18T14:35:58.562Z,68.28
2022-09-18T14:38:49.739Z,68.05
2022-09-18T14:41:31.757Z,68.14
2022-09-18T14:44:06.419Z,68.26
2022-09-18T14:46:35.607Z,68.41
2022-09-18T14:49:04.562Z,68.37
2022-09-18T14:51:49.519Z,68.41
2022-09-18T14:54:28.645Z,69.16
2022-09-18T14:57:04.864Z,69.36
2022-09-18T14:59:39.685Z,69.95
2022-09-18T15:02:20.799Z,70.27
2022-09-18T15:04:51.803Z,70.96
2022-09-18T15:07:25.960Z,71.09
2022-09-18T15:10:20.993Z,71.27
2022-09-18T15:12:53.398Z,71.34
2022-09-18T15:15:47.450Z,71.94
2022-09-18T15:18:30.791Z,72.14
2022-09-18T15:21:06.722Z,72.50
2022-09-18T15:23:46.752Z,73.17
2022-09-18T15:26:18.746Z,73.26
2022-09-18T15:28:55.050Z,73.90
2022-09-18T15:31:35.844Z,73.98
2022-09-18T15:34:13.533Z,74.32
2022-09-18T15:36:42.735Z,74.12
2022-09-18T15:39:32.505Z,74.56
2022-09-18T15:42:29.299Z,75.06
2022-09-18T15:45:28.667Z,75.29
2022-09-18T15:48:02.133Z,75.20
2022-09-18T15:50:51.993Z,76.07
2022-09-18T15:53:30.870Z,75.92
2022-09-18T15:56:05.573Z,75.83
2022-09-18T15:58:53.905Z,76.25
2022-09-18T16:01:36.452Z,76.17
2022-09-18T16:04:20.314Z,76.50
2022-09-18T16:06:59.196Z,76.59
2022-09-18T16:09:42.866Z,76.87
2022-09-18T16:12:43.384Z,76.67
2022-09-18T16:15:24.016Z,76.90
2022-09-18T16:18:20.806Z,77.13
2022-09-18T16:21:16.236Z,77.20
2022-09-18T16:23:53.855Z,77.45
2022-09-18T16:26:31.375Z,77.78
2022-09-18T16:29:03.718Z,77.37
2022-09-18T16:31:36.756Z,77.61
2022-09-18T16:34:24.799Z,78.12
2022-09-18T16:36:56.930Z,78.33
2022-09-18T16:39:28.755Z,78.40
2022-09-18T16:42:03.839Z,78.48
2022-09-18T16:44:36.647Z,78.52
2022-09-18T16:47:09.986Z,78.54
2022-09-18T16:49:45.271Z,78.44
2022-09-18T16:52:16.800Z,78.68
2022-09-18T16:54:58.274Z,79.09
2022-09-18T16:57:27.910Z,79.09
2022-09-18T17:00:05.480Z,79.41
2022-09-18T17:02:49.299Z,79.44
2022-09-18T17:05:19.074Z,79.38
2022-09-18T17:07:49.963Z,79.55
2022-09-18T17:10:25.036Z,79.47
2022-09-18T17:12:57.398Z,79.45
2022-09-18T17:15:35.265Z,79.51
2022-09-18T17:18:06.019Z,79.67
2022-09-18T17:20:36.075Z,79.75
2022-09-18T17:23:07.358Z,79.76
2022-09-18T17:25:42.728Z,79.87
2022-09-18T17:28:12.611Z,79.85
2022-09-18T17:30:43.254Z,79.67
2022-09-18T17:33:12.546Z,80.01
2022-09-18T17:35:42.337Z,79.84
2022-09-18T17:38:13.379Z,80.09
2022-09-18T17:40:42.677Z,80.24
2022-09-18T17:43:16.804Z,79.96
2022-09-18T17:45:46.402Z,79.87
2022-09-18T17:48:16.353Z,80.02
2022-09-18T17:50:51.451Z,80.01
2022-09-18T17:53:28.849Z,80.36
2022-09-18T17:56:02.549Z,81.02
2022-09-18T17:58:39.003Z,80.90
2022-09-18T18:01:14.672Z,80.90
2022-09-18T18:03:47.330Z,80.75
2022-09-18T18:06:21.801Z,80.91
2022-09-18T18:08:56.354Z,80.80
2022-09-18T18:11:33.517Z,80.69
2022-09-18T18:14:03.626Z,80.88
2022-09-18T18:16:35.161Z,80.89
2022-09-18T18:19:08.563Z,81.02
2022-09-18T18:21:45.206Z,81.15
2022-09-18T18:24:19.114Z,81.57
2022-09-18T18:26:48.854Z,81.79
2022-09-18T18:29:21.263Z,82.07
2022-09-18T18:31:51.922Z,82.28
2022-09-18T18:34:22.701Z,82.76
2022-09-18T18:36:52.960Z,82.69
2022-09-18T18:39:23.767Z,82.98
2022-09-18T18:41:53.416Z,82.87
2022-09-18T18:44:23.430Z,83.27
2022-09-18T18:46:53.536Z,83.34
2022-09-18T18:49:22.653Z,83.22
2022-09-18T18:51:52.458Z,83.39
2022-09-18T18:54:24.408Z,83.56
2022-09-18T18:56:53.592Z,83.33
2022-09-18T18:59:25.876Z,83.21
2022-09-18T19:01:58.050Z,83.31
2022-09-18T19:04:31.149Z,83.84
2022-09-18T19:07:00.903Z,84.70
2022-09-18T19:09:32.740Z,85.04
2022-09-18T19:12:02.193Z,84.78
2022-09-18T19:14:34.414Z,84.56
2022-09-18T19:17:03.693Z,84.38
2022-09-18T19:19:33.047Z,85.16
2022-09-18T19:22:02.402Z,84.74
2022-09-18T19:24:35.072Z,84.70
2022-09-18T19:27:04.573Z,84.75
2022-09-18T19:29:35.942Z,84.95
2022-09-18T19:32:06.449Z,85.01
2022-09-18T19:34:36.328Z,86.01
2022-09-18T19:37:11.366Z,85.50
2022-09-18T19:39:47.402Z,85.07
2022-09-18T19:42:17.764Z,85.25
2022-09-18T19:44:50.205Z,85.16
2022-09-18T19:47:28.568Z,85.27
2022-09-18T19:49:59.966Z,85.34
2022-09-18T19:52:32.732Z,85.19
2022-09-18T19:55:06.745Z,85.15
2022-09-18T19:57:36.226Z,85.59
2022-09-18T20:00:09.472Z,86.02
2022-09-18T20:02:42.858Z,86.12
2022-09-18T20:05:12.488Z,86.39
2022-09-18T20:07:43.180Z,85.95
2022-09-18T20:10:17.368Z,86.17
2022-09-18T20:12:47.670Z,85.88
2022-09-18T20:15:16.910Z,85.78
2022-09-18T20:17:46.281Z,86.70
2022-09-18T20:20:16.659Z,86.24
2022-09-18T20:22:52.289Z,85.76
2022-09-18T20:25:26.466Z,85.80
2022-09-18T20:27:55.780Z,86.59
2022-09-18T20:30:26.186Z,86.91
2022-09-18T20:32:55.815Z,86.73
2022-09-18T20:35:24.994Z,86.92
2022-09-18T20:37:56.380Z,87.30
2022-09-18T20:40:27.306Z,86.77
2022-09-18T20:42:56.582Z,86.96
2022-09-18T20:45:26.686Z,87.09
2022-09-18T20:47:55.299Z,87.02
2022-09-18T20:50:30.394Z,87.34
2022-09-18T20:53:06.330Z,87.02
2022-09-18T20:55:37.382Z,86.77
2022-09-18T20:58:06.322Z,86.78
2022-09-18T21:00:36.920Z,86.61
2022-09-18T21:03:07.012Z,86.65
2022-09-18T21:05:36.486Z,86.43
2022-09-18T21:08:05.327Z,86.47
2022-09-18T21:10:34.749Z,86.33
2022-09-18T21:13:06.179Z,86.27
2022-09-18T21:15:34.985Z,86.35
2022-09-18T21:18:03.715Z,86.02
2022-09-18T21:20:32.907Z,86.11
2022-09-18T21:23:19.013Z,86.32
2022-09-18T21:25:47.582Z,86.38
2022-09-18T21:28:17.598Z,86.24
2022-09-18T21:30:46.256Z,86.19
2022-09-18T21:33:16.163Z,86.18
2022-09-18T21:35:54.971Z,86.12
2022-09-18T21:38:23.589Z,86.10
2022-09-18T21:40:52.276Z,86.13
2022-09-18T21:43:22.913Z,85.75
2022-09-18T21:45:51.660Z,85.78
2022-09-18T21:48:20.341Z,85.91
2022-09-18T21:50:49.295Z,85.97
2022-09-18T21:53:18.380Z,86.00
2022-09-18T21:55:47.833Z,85.87
2022-09-18T21:58:17.548Z,86.03
2022-09-18T22:00:48.000Z,85.89
2022-09-18T22:03:17.418Z,86.12
2022-09-18T22:05:47.060Z,85.89
2022-09-18T22:08:17.577Z,85.87
2022-09-18T22:10:46.637Z,86.46
2022-09-18T22:13:15.623Z,86.84
2022-09-18T22:15:44.550Z,87.22
2022-09-18T22:18:14.664Z,86.67
2022-09-18T22:20:43.390Z,86.78
2022-09-18T22:23:12.295Z,87.15
2022-09-18T22:25:40.998Z,86.99
2022-09-18T22:28:09.663Z,86.93
2022-09-18T22:30:38.666Z,86.93
2022-09-18T22:33:07.715Z,86.89
2022-09-18T22:35:38.150Z,87.11
2022-09-18T22:38:06.798Z,87.15
2022-09-18T22:40:35.521Z,87.17
2022-09-18T22:43:04.306Z,87.24
2022-09-18T22:45:33.013Z,87.33
2022-09-18T22:48:01.712Z,87.27
2022-09-18T22:50:30.569Z,87.39
2022-09-18T22:53:00.866Z,87.32
2022-09-18T22:55:29.869Z,87.36
2022-09-18T22:57:58.617Z,87.21
2022-09-18T23:00:27.346Z,87.38
2022-09-18T23:02:56.266Z,87.25
2022-09-18T23:05:24.881Z,87.31
2022-09-18T23:07:53.476Z,87.33
2022-09-18T23:10:23.441Z,87.09
2022-09-18T23:12:52.084Z,87.17
2022-09-18T23:15:20.704Z,87.11
2022-09-18T23:17:49.733Z,87.17
2022-09-18T23:20:18.612Z,87.14
2022-09-18T23:22:47.452Z,87.18
2022-09-18T23:25:16.361Z,87.10
2022-09-18T23:27:46.600Z,87.17
2022-09-18T23:30:15.378Z,87.07
2022-09-18T23:32:43.992Z,86.81
2022-09-18T23:35:12.652Z,86.80
2022-09-18T23:37:41.242Z,86.71
2022-09-18T23:40:11.275Z,86.74
2022-09-18T23:42:40.277Z,86.69
2022-09-18T23:45:11.939Z,86.70
2022-09-18T23:47:40.707Z,86.72
2022-09-18T23:50:10.103Z,86.56
2022-09-18T23:52:39.030Z,86.52
2022-09-18T23:55:08.000Z,86.53
2022-09-18T23:57:37.090Z,86.63
